createdAt,value
2022-08-29T00:00:01.605Z,55.30
2022-08-29T00:02:28.289Z,55.40
2022-08-29T00:04:55.271Z,55.40
2022-08-29T00:07:21.990Z,55.40
2022-08-29T00:09:48.599Z,55.50
2022-08-29T00:12:15.235Z,55.50
2022-08-29T00:14:41.847Z,55.60
2022-08-29T00:17:08.434Z,55.40
2022-08-29T00:19:36.208Z,55.70
2022-08-29T00:22:02.809Z,55.50
2022-08-29T00:24:29.454Z,55.60
2022-08-29T00:26:56.057Z,55.50
2022-08-29T00:29:22.652Z,55.40
2022-08-29T00:31:49.282Z,55.10
2022-08-29T00:34:15.900Z,54.70
2022-08-29T00:36:42.488Z,54.40
2022-08-29T00:39:15.792Z,54.20
2022-08-29T00:41:42.842Z,54.00
2022-08-29T00:44:09.436Z,53.80
2022-08-29T00:46:35.997Z,53.90
2022-08-29T00:49:03.544Z,53.90
2022-08-29T00:51:30.156Z,53.90
2022-08-29T00:54:00.867Z,53.90
2022-08-29T00:56:28.082Z,53.80
2022-08-29T00:58:56.383Z,53.80
2022-08-29T01:01:23.240Z,54.10
2022-08-29T01:03:50.078Z,53.80
2022-08-29T01:06:17.484Z,54.20
2022-08-29T01:08:44.132Z,54.20
2022-08-29T01:11:29.970Z,54.20
2022-08-29T01:13:56.573Z,54.40
2022-08-29T01:16:24.272Z,54.30
2022-08-29T01:18:51.323Z,54.60
2022-08-29T01:21:27.149Z,54.50
2022-08-29T01:23:56.928Z,54.60
2022-08-29T01:26:23.615Z,54.60
2022-08-29T01:28:51.024Z,54.60
2022-08-29T01:31:46.910Z,54.60
2022-08-29T01:34:07.461Z,54.60
2022-08-29T01:36:40.057Z,54.60
2022-08-29T01:39:07.008Z,54.70
2022-08-29T01:41:33.629Z,54.80
2022-08-29T01:44:00.222Z,54.60
2022-08-29T01:46:28.314Z,54.70
2022-08-29T01:48:55.130Z,54.70
2022-08-29T01:51:21.748Z,54.80
2022-08-29T01:53:48.336Z,54.70
2022-08-29T01:56:16.034Z,54.40
2022-08-29T01:58:42.974Z,54.10
2022-08-29T02:01:09.670Z,53.80
2022-08-29T02:03:36.617Z,53.70
2022-08-29T02:06:03.743Z,53.30
2022-08-29T02:08:30.339Z,53.00
2022-08-29T02:10:57.640Z,52.90
2022-08-29T02:13:24.512Z,52.90
2022-08-29T02:15:51.591Z,52.80
2022-08-29T02:18:18.295Z,52.90
2022-08-29T02:20:45.165Z,53.10
2022-08-29T02:23:29.843Z,53.10
2022-08-29T02:25:57.384Z,53.10
2022-08-29T02:28:23.982Z,53.30
2022-08-29T02:30:56.510Z,53.40
2022-08-29T02:33:23.868Z,53.40
2022-08-29T02:35:50.493Z,53.70
2022-08-29T02:38:17.106Z,53.60
2022-08-29T02:40:43.846Z,53.80
2022-08-29T02:43:10.535Z,54.00
2022-08-29T02:45:37.515Z,54.40
2022-08-29T02:48:04.405Z,55.00
2022-08-29T02:50:31.035Z,54.30
2022-08-29T02:52:57.659Z,54.40
2022-08-29T02:55:24.257Z,54.60
2022-08-29T02:57:52.433Z,54.50
2022-08-29T03:00:20.168Z,54.50
2022-08-29T03:02:47.370Z,54.60
2022-08-29T03:05:14.785Z,54.60
2022-08-29T03:07:41.411Z,54.70
2022-08-29T03:10:08.062Z,54.80
2022-08-29T03:12:35.566Z,54.80
2022-08-29T03:15:02.536Z,54.80
2022-08-29T03:17:29.379Z,54.80
2022-08-29T03:19:56.115Z,54.60
2022-08-29T03:22:22.726Z,54.40
2022-08-29T03:24:49.325Z,54.00
2022-08-29T03:27:15.926Z,53.70
2022-08-29T03:29:42.554Z,53.70
2022-08-29T03:32:09.171Z,52.20
2022-08-29T03:34:35.978Z,47.70
2022-08-29T03:37:02.635Z,47.70
2022-08-29T03:39:29.502Z,48.30
2022-08-29T03:41:56.160Z,48.70
2022-08-29T03:44:23.223Z,49.10
2022-08-29T03:46:49.870Z,49.60
2022-08-29T03:49:16.511Z,50.20
2022-08-29T03:51:43.098Z,50.90
2022-08-29T03:54:09.810Z,51.50
2022-08-29T03:56:36.519Z,52.00
2022-08-29T03:59:03.168Z,52.40
2022-08-29T04:01:30.140Z,52.80
2022-08-29T04:03:57.327Z,53.30
2022-08-29T04:06:24.191Z,53.50
2022-08-29T04:08:51.645Z,53.50
2022-08-29T04:11:18.394Z,53.50
2022-08-29T04:13:45.174Z,53.60
2022-08-29T04:16:12.309Z,53.70
2022-08-29T04:18:38.970Z,53.70
2022-08-29T04:21:05.733Z,53.70
2022-08-29T04:23:32.503Z,53.40
2022-08-29T04:26:18.774Z,53.30
2022-08-29T04:28:45.700Z,53.20
2022-08-29T04:31:20.401Z,53.20
2022-08-29T04:33:47.349Z,53.10
2022-08-29T04:36:15.080Z,53.00
2022-08-29T04:38:41.831Z,52.90
2022-08-29T04:41:09.374Z,52.90
2022-08-29T04:43:36.098Z,53.10
2022-08-29T04:46:02.734Z,53.20
2022-08-29T04:48:29.387Z,53.20
2022-08-29T04:50:56.494Z,53.30
2022-08-29T04:53:23.645Z,53.60
2022-08-29T04:56:00.030Z,53.60
2022-08-29T04:58:26.624Z,53.70
2022-08-29T05:00:53.227Z,53.60
2022-08-29T05:03:20.203Z,53.60
2022-08-29T05:05:54.706Z,53.80
2022-08-29T05:08:22.929Z,54.10
2022-08-29T05:10:49.527Z,54.10
2022-08-29T05:13:16.144Z,54.10
2022-08-29T05:15:42.793Z,54.50
2022-08-29T05:18:09.409Z,53.60
2022-08-29T05:20:36.016Z,53.50
2022-08-29T05:23:02.616Z,53.70
2022-08-29T05:25:29.234Z,53.70
2022-08-29T05:27:57.386Z,53.30
2022-08-29T05:30:34.223Z,53.70
2022-08-29T05:33:01.447Z,53.30
2022-08-29T05:35:28.088Z,53.00
2022-08-29T05:37:54.688Z,53.20
2022-08-29T05:40:21.665Z,53.00
2022-08-29T05:42:48.345Z,52.80
2022-08-29T05:45:16.240Z,52.60
2022-08-29T05:47:42.998Z,52.50
2022-08-29T05:50:11.718Z,52.60
2022-08-29T05:52:38.478Z,52.40
2022-08-29T05:55:05.242Z,52.40
2022-08-29T05:57:31.868Z,52.40
2022-08-29T05:59:58.596Z,52.40
2022-08-29T06:02:25.389Z,52.40
2022-08-29T06:04:52.201Z,52.50
2022-08-29T06:07:18.880Z,52.40
2022-08-29T06:09:45.565Z,52.40
2022-08-29T06:12:13.683Z,52.40
2022-08-29T06:14:40.343Z,52.60
2022-08-29T06:17:08.090Z,52.40
2022-08-29T06:19:36.010Z,52.60
2022-08-29T06:22:09.683Z,52.70
2022-08-29T06:24:36.935Z,52.60
2022-08-29T06:27:03.641Z,52.70
2022-08-29T06:29:30.261Z,52.70
2022-08-29T06:31:56.949Z,52.80
2022-08-29T06:34:23.566Z,52.90
2022-08-29T06:36:51.384Z,53.40
2022-08-29T06:39:18.094Z,52.90
2022-08-29T06:41:44.680Z,52.80
2022-08-29T06:44:11.305Z,52.90
2022-08-29T06:46:39.046Z,52.80
2022-08-29T06:49:08.862Z,52.60
2022-08-29T06:51:35.838Z,52.50
2022-08-29T06:54:03.259Z,52.20
2022-08-29T06:56:33.804Z,51.80
2022-08-29T06:59:03.411Z,51.50
2022-08-29T07:01:30.069Z,51.20
2022-08-29T07:03:57.788Z,50.80
2022-08-29T07:06:24.581Z,50.50
2022-08-29T07:08:55.249Z,50.10
2022-08-29T07:11:23.105Z,49.90
2022-08-29T07:13:49.694Z,50.20
2022-08-29T07:16:16.897Z,50.30
2022-08-29T07:18:44.529Z,50.50
2022-08-29T07:21:12.916Z,50.60
2022-08-29T07:23:40.814Z,50.60
2022-08-29T07:26:11.574Z,50.80
2022-08-29T07:28:38.179Z,50.70
2022-08-29T07:31:06.283Z,50.70
2022-08-29T07:33:35.122Z,50.60
2022-08-29T07:36:02.110Z,50.60
2022-08-29T07:38:30.662Z,50.80
2022-08-29T07:41:00.866Z,50.70
2022-08-29T07:43:28.073Z,50.80
2022-08-29T07:45:55.191Z,50.80
2022-08-29T07:48:23.134Z,51.30
2022-08-29T07:50:50.084Z,51.10
2022-08-29T07:53:16.946Z,51.20
2022-08-29T07:55:44.020Z,51.30
2022-08-29T07:58:10.767Z,51.50
2022-08-29T08:00:37.442Z,51.50
2022-08-29T08:03:04.146Z,51.50
2022-08-29T08:05:34.087Z,51.50
2022-08-29T08:08:05.142Z,51.70
2022-08-29T08:10:35.804Z,51.60
2022-08-29T08:13:02.659Z,51.80
2022-08-29T08:15:29.375Z,51.80
2022-08-29T08:17:56.014Z,51.90
2022-08-29T08:20:22.796Z,51.90
2022-08-29T08:22:49.370Z,51.90
2022-08-29T08:25:16.017Z,51.90
2022-08-29T08:27:43.843Z,51.40
2022-08-29T08:30:10.882Z,51.30
2022-08-29T08:32:37.661Z,51.10
2022-08-29T08:35:04.507Z,50.80
2022-08-29T08:37:31.123Z,50.80
2022-08-29T08:39:58.253Z,50.80
2022-08-29T08:42:51.396Z,51.00
2022-08-29T08:45:23.085Z,51.10
2022-08-29T08:48:03.842Z,51.00
2022-08-29T08:50:39.101Z,51.00
2022-08-29T08:53:07.450Z,51.20
2022-08-29T08:55:44.519Z,51.20
2022-08-29T08:58:28.745Z,51.40
2022-08-29T09:01:00.599Z,51.40
2022-08-29T09:03:48.398Z,51.60
2022-08-29T09:06:32.129Z,51.60
2022-08-29T09:09:10.288Z,51.80
2022-08-29T09:11:41.934Z,51.90
2022-08-29T09:14:23.915Z,51.90
2022-08-29T09:16:50.753Z,52.00
2022-08-29T09:19:17.575Z,52.00
2022-08-29T09:21:47.289Z,52.00
2022-08-29T09:24:23.005Z,52.10
2022-08-29T09:27:15.196Z,52.10
2022-08-29T09:29:43.211Z,52.20
2022-08-29T09:32:16.541Z,52.30
2022-08-29T09:37:33.803Z,52.40
2022-08-29T09:40:16.724Z,52.50
2022-08-29T09:42:46.838Z,52.40
2022-08-29T09:45:17.993Z,52.50
2022-08-29T09:47:45.297Z,52.40
2022-08-29T09:50:15.071Z,52.10
2022-08-29T09:52:51.116Z,51.90
2022-08-29T09:55:19.795Z,51.60
2022-08-29T09:58:15.820Z,51.30
2022-08-29T10:00:58.135Z,51.20
2022-08-29T10:03:25.354Z,51.10
2022-08-29T10:06:05.226Z,51.10
2022-08-29T10:08:35.671Z,51.20
2022-08-29T10:11:03.547Z,51.20
2022-08-29T10:13:34.487Z,51.30
2022-08-29T10:16:07.452Z,51.70
2022-08-29T10:18:37.197Z,51.50
2022-08-29T10:21:19.363Z,51.70
2022-08-29T10:23:59.717Z,51.70
2022-08-29T10:26:30.652Z,51.90
2022-08-29T10:29:01.286Z,51.90
2022-08-29T10:31:34.015Z,52.00
2022-08-29T10:34:22.010Z,52.00
2022-08-29T10:36:52.838Z,52.10
2022-08-29T10:39:45.883Z,52.20
2022-08-29T10:42:14.276Z,52.40
2022-08-29T10:45:04.312Z,52.30
2022-08-29T10:47:37.166Z,52.50
2022-08-29T10:50:10.125Z,52.50
2022-08-29T10:52:43.449Z,52.40
2022-08-29T10:55:21.234Z,52.20
2022-08-29T10:57:54.125Z,52.00
2022-08-29T11:00:24.525Z,51.70
2022-08-29T11:03:14.707Z,51.40
2022-08-29T11:06:08.941Z,51.20
2022-08-29T11:08:38.277Z,51.10
2022-08-29T11:11:05.036Z,51.40
2022-08-29T11:13:33.403Z,51.30
2022-08-29T11:16:00.162Z,51.20
2022-08-29T11:18:33.944Z,51.30
2022-08-29T11:21:06.967Z,51.50
2022-08-29T11:23:38.650Z,51.50
2022-08-29T11:26:38.266Z,51.70
2022-08-29T11:29:29.023Z,51.70
2022-08-29T11:32:18.589Z,51.90
2022-08-29T11:35:06.372Z,52.00
2022-08-29T11:37:39.239Z,52.10
2022-08-29T11:40:19.353Z,52.30
2022-08-29T11:42:50.183Z,52.20
2022-08-29T11:45:23.819Z,52.40
2022-08-29T11:48:02.348Z,52.50
2022-08-29T11:50:40.378Z,52.50
2022-08-29T11:53:44.361Z,52.50
2022-08-29T11:56:17.680Z,52.50
2022-08-29T11:59:03.647Z,52.20
2022-08-29T12:01:34.149Z,52.00
2022-08-29T12:04:07.920Z,51.70
2022-08-29T12:06:55.363Z,51.40
2022-08-29T12:09:43.048Z,51.20
2022-08-29T12:12:46.253Z,51.20
2022-08-29T12:18:45.674Z,51.40
2022-08-29T12:21:35.687Z,51.40
2022-08-29T12:24:25.886Z,51.50
2022-08-29T12:26:59.970Z,51.70
2022-08-29T12:29:27.913Z,51.70
2022-08-29T12:32:22.288Z,51.90
2022-08-29T12:34:53.898Z,52.00
2022-08-29T12:37:31.844Z,52.10
2022-08-29T12:40:03.263Z,52.20
2022-08-29T12:42:39.607Z,52.30
2022-08-29T12:45:27.000Z,52.40
2022-08-29T12:48:06.891Z,52.40
2022-08-29T12:50:43.682Z,52.50
2022-08-29T12:53:25.962Z,52.50
2022-08-29T12:55:56.697Z,52.50
2022-08-29T12:58:43.174Z,52.40
2022-08-29T13:01:30.841Z,52.10
2022-08-29T13:04:14.844Z,51.80
2022-08-29T13:07:00.950Z,51.50
2022-08-29T13:09:31.937Z,51.30
2022-08-29T13:12:17.860Z,51.50
2022-08-29T13:14:49.030Z,51.50
2022-08-29T13:17:15.935Z,51.40
2022-08-29T13:19:42.628Z,51.50
2022-08-29T13:22:12.021Z,51.50
2022-08-29T13:24:40.344Z,51.70
2022-08-29T13:27:10.303Z,51.80
2022-08-29T13:29:38.275Z,51.80
2022-08-29T13:32:26.791Z,51.90
2022-08-29T13:35:02.208Z,52.00
2022-08-29T13:37:31.055Z,52.20
2022-08-29T13:39:57.796Z,52.20
2022-08-29T13:42:28.726Z,52.40
2022-08-29T13:44:59.575Z,52.50
2022-08-29T13:47:29.490Z,52.60
2022-08-29T13:49:56.789Z,52.70
2022-08-29T13:52:24.032Z,52.80
2022-08-29T13:54:56.383Z,52.80
2022-08-29T13:57:25.460Z,52.80
2022-08-29T13:59:52.134Z,52.60
2022-08-29T14:02:19.936Z,52.40
2022-08-29T14:04:48.855Z,52.20
2022-08-29T14:07:25.617Z,52.00
2022-08-29T14:09:54.477Z,51.60
2022-08-29T14:12:21.515Z,51.60
2022-08-29T14:15:03.946Z,51.50
2022-08-29T14:17:33.426Z,51.60
2022-08-29T14:20:00.035Z,51.70
2022-08-29T14:22:27.757Z,51.70
2022-08-29T14:24:55.445Z,51.70
2022-08-29T14:27:22.116Z,51.80
2022-08-29T14:29:51.181Z,51.80
2022-08-29T14:32:17.927Z,52.00
2022-08-29T14:34:49.276Z,52.00
2022-08-29T14:37:20.157Z,52.10
2022-08-29T14:39:48.492Z,52.20
2022-08-29T14:42:22.117Z,52.40
2022-08-29T14:44:48.727Z,52.50
2022-08-29T14:47:16.358Z,52.50
2022-08-29T14:49:43.110Z,52.70
2022-08-29T14:52:25.202Z,52.70
2022-08-29T14:54:51.810Z,53.30
2022-08-29T14:57:18.563Z,52.80
2022-08-29T14:59:48.042Z,52.80
2022-08-29T15:02:14.956Z,52.70
2022-08-29T15:04:43.004Z,52.50
2022-08-29T15:07:11.787Z,52.40
2022-08-29T15:09:38.970Z,52.10
2022-08-29T15:12:05.974Z,51.90
2022-08-29T15:14:34.387Z,52.00
2022-08-29T15:17:02.642Z,51.70
2022-08-29T15:22:15.960Z,51.90
2022-08-29T15:24:42.656Z,52.00
2022-08-29T15:27:10.540Z,52.10
2022-08-29T15:29:37.395Z,52.10
2022-08-29T15:32:04.497Z,52.20
2022-08-29T15:34:31.311Z,52.30
2022-08-29T15:37:00.151Z,52.40
2022-08-29T15:39:29.921Z,52.60
2022-08-29T15:42:01.743Z,53.30
2022-08-29T15:44:29.425Z,52.80
2022-08-29T15:46:57.356Z,52.80
2022-08-29T15:49:29.052Z,53.00
2022-08-29T15:51:57.849Z,53.00
2022-08-29T15:54:24.455Z,53.00
2022-08-29T15:57:03.443Z,53.70
2022-08-29T15:59:57.040Z,53.00
2022-08-29T16:02:32.922Z,52.80
2022-08-29T16:05:25.560Z,52.60
2022-08-29T16:07:53.340Z,52.60
2022-08-29T16:10:22.084Z,52.50
2022-08-29T16:12:51.802Z,52.50
2022-08-29T16:15:23.069Z,52.10
2022-08-29T16:17:52.585Z,52.10
2022-08-29T16:20:33.578Z,52.20
2022-08-29T16:23:03.316Z,52.60
2022-08-29T16:25:33.395Z,52.80
2022-08-29T16:28:01.100Z,53.00
2022-08-29T16:30:35.008Z,53.00
2022-08-29T16:33:16.827Z,53.10
2022-08-29T16:35:43.657Z,53.10
2022-08-29T16:38:13.515Z,53.20
2022-08-29T16:40:51.728Z,53.10
2022-08-29T16:43:22.530Z,53.20
2022-08-29T16:45:53.374Z,53.40
2022-08-29T16:48:22.436Z,53.60
2022-08-29T16:50:51.684Z,53.80
2022-08-29T16:53:39.247Z,53.80
2022-08-29T16:56:14.139Z,54.10
2022-08-29T16:58:59.902Z,54.00
2022-08-29T17:01:27.466Z,53.80
2022-08-29T17:03:57.435Z,53.90
2022-08-29T17:06:25.119Z,53.50
2022-08-29T17:08:52.727Z,53.10
2022-08-29T17:11:32.226Z,52.80
2022-08-29T17:14:02.942Z,52.70
2022-08-29T17:16:31.740Z,52.50
2022-08-29T17:18:59.936Z,52.50
2022-08-29T17:21:27.646Z,52.50
2022-08-29T17:23:55.248Z,52.40
2022-08-29T17:26:25.519Z,52.50
2022-08-29T17:28:53.219Z,52.50
2022-08-29T17:31:24.330Z,52.60
2022-08-29T17:33:54.044Z,52.70
2022-08-29T17:36:22.214Z,53.00
2022-08-29T17:38:55.488Z,52.90
2022-08-29T17:41:23.256Z,52.90
2022-08-29T17:43:50.053Z,53.10
2022-08-29T17:46:17.129Z,53.10
2022-08-29T17:48:44.078Z,53.20
2022-08-29T17:51:12.158Z,53.30
2022-08-29T17:53:39.721Z,53.30
2022-08-29T17:56:26.321Z,53.40
2022-08-29T17:59:00.875Z,53.40
2022-08-29T18:01:32.399Z,53.30
2022-08-29T18:03:59.297Z,53.00
2022-08-29T18:06:31.614Z,52.70
2022-08-29T18:08:59.069Z,52.10
2022-08-29T18:11:25.791Z,51.80
2022-08-29T18:14:01.178Z,51.30
2022-08-29T18:16:39.041Z,51.30
2022-08-29T18:19:09.058Z,51.40
2022-08-29T18:21:46.546Z,51.70
2022-08-29T18:24:16.635Z,51.60
2022-08-29T18:26:46.121Z,51.70
2022-08-29T18:29:13.158Z,51.90
2022-08-29T18:31:48.020Z,52.20
2022-08-29T18:34:15.179Z,52.40
2022-08-29T18:36:43.402Z,52.40
2022-08-29T18:39:12.723Z,52.60
2022-08-29T18:41:43.785Z,52.60
2022-08-29T18:44:18.605Z,52.70
2022-08-29T18:46:48.284Z,53.40
2022-08-29T18:49:16.617Z,52.80
2022-08-29T18:51:43.723Z,53.00
2022-08-29T18:54:18.955Z,53.00
2022-08-29T18:56:46.023Z,53.20
2022-08-29T18:59:15.491Z,53.10
2022-08-29T19:01:52.639Z,53.20
2022-08-29T19:04:25.393Z,53.30
2022-08-29T19:06:59.775Z,53.30
2022-08-29T19:09:27.608Z,53.30
2022-08-29T19:11:56.466Z,53.30
2022-08-29T19:14:37.217Z,53.50
2022-08-29T19:17:13.119Z,53.30
2022-08-29T19:20:16.029Z,53.10
2022-08-29T19:22:44.924Z,52.80
2022-08-29T19:25:15.761Z,52.60
2022-08-29T19:27:44.140Z,52.30
2022-08-29T19:30:14.930Z,51.90
2022-08-29T19:32:52.138Z,52.00
2022-08-29T19:35:30.107Z,51.80
2022-08-29T19:38:06.792Z,51.90
2022-08-29T19:40:35.666Z,52.00
2022-08-29T19:43:10.422Z,52.20
2022-08-29T19:45:43.111Z,52.30
2022-08-29T19:48:22.359Z,52.40
2022-08-29T19:50:49.990Z,52.30
2022-08-29T19:53:19.965Z,52.40
2022-08-29T19:55:53.478Z,52.50
2022-08-29T19:58:31.290Z,52.60
2022-08-29T20:01:02.428Z,53.30
2022-08-29T20:03:29.665Z,52.50
2022-08-29T20:06:06.172Z,52.50
2022-08-29T20:08:46.782Z,52.50
2022-08-29T20:11:27.304Z,52.50
2022-08-29T20:13:58.997Z,52.40
2022-08-29T20:16:31.740Z,52.30
2022-08-29T20:19:02.622Z,52.30
2022-08-29T20:21:33.510Z,52.50
2022-08-29T20:24:00.676Z,52.50
2022-08-29T20:26:31.579Z,52.60
2022-08-29T20:29:02.646Z,53.30
2022-08-29T20:31:29.400Z,52.60
2022-08-29T20:33:59.342Z,52.70
2022-08-29T20:36:48.986Z,52.80
2022-08-29T20:39:17.467Z,52.80
2022-08-29T20:41:50.831Z,53.20
2022-08-29T20:44:18.440Z,52.90
2022-08-29T20:46:45.191Z,52.60
2022-08-29T20:49:44.048Z,52.40
2022-08-29T20:52:12.131Z,52.00
2022-08-29T20:54:38.960Z,51.70
2022-08-29T20:57:06.468Z,51.30
2022-08-29T20:59:38.398Z,51.20
2022-08-29T21:02:05.270Z,51.40
2022-08-29T21:04:59.851Z,51.30
2022-08-29T21:07:26.486Z,51.50
2022-08-29T21:09:54.727Z,51.60
2022-08-29T21:12:21.411Z,51.60
2022-08-29T21:14:48.060Z,51.80
2022-08-29T21:17:14.988Z,51.90
2022-08-29T21:19:41.776Z,52.10
2022-08-29T21:22:08.715Z,52.00
2022-08-29T21:24:35.340Z,52.00
2022-08-29T21:27:01.949Z,51.90
2022-08-29T21:29:28.560Z,51.80
2022-08-29T21:31:55.157Z,51.90
2022-08-29T21:34:22.028Z,52.00
2022-08-29T21:36:48.866Z,52.00
2022-08-29T21:39:25.053Z,52.60
2022-08-29T21:42:12.711Z,52.10
2022-08-29T21:44:39.312Z,52.20
2022-08-29T21:47:06.061Z,52.10
2022-08-29T21:49:32.698Z,52.20
2022-08-29T21:51:59.319Z,52.20
2022-08-29T21:54:35.052Z,52.10
2022-08-29T21:57:02.154Z,52.20
2022-08-29T21:59:29.819Z,52.20
2022-08-29T22:01:57.061Z,52.20
2022-08-29T22:04:28.661Z,52.60
2022-08-29T22:06:56.309Z,52.40
2022-08-29T22:09:30.066Z,52.00
2022-08-29T22:12:07.003Z,52.00
2022-08-29T22:14:54.293Z,51.30
2022-08-29T22:17:20.977Z,51.10
2022-08-29T22:19:47.558Z,50.60
2022-08-29T22:22:14.174Z,50.60
2022-08-29T22:24:40.755Z,50.80
2022-08-29T22:27:07.389Z,50.80
2022-08-29T22:29:34.565Z,50.70
2022-08-29T22:32:01.175Z,50.90
2022-08-29T22:34:27.839Z,51.10
2022-08-29T22:36:56.246Z,51.20
2022-08-29T22:39:22.876Z,51.30
2022-08-29T22:41:49.505Z,51.20
2022-08-29T22:45:00.038Z,51.80
2022-08-29T22:47:04.053Z,51.10
2022-08-29T22:49:33.228Z,51.10
2022-08-29T22:52:00.411Z,51.20
2022-08-29T22:54:36.274Z,51.10
2022-08-29T22:57:03.225Z,51.10
2022-08-29T22:59:30.118Z,51.10
2022-08-29T23:01:56.939Z,51.10
2022-08-29T23:04:25.626Z,51.10
2022-08-29T23:06:52.254Z,51.20
2022-08-29T23:09:18.910Z,51.20
2022-08-29T23:11:45.540Z,51.20
2022-08-29T23:14:12.690Z,51.20
2022-08-29T23:16:39.431Z,51.20
2022-08-29T23:19:06.039Z,51.10
2022-08-29T23:21:32.678Z,51.10
2022-08-29T23:23:59.359Z,51.10
2022-08-29T23:26:25.959Z,51.10
2022-08-29T23:28:52.575Z,51.50
2022-08-29T23:31:19.437Z,51.40
2022-08-29T23:33:46.114Z,51.10
2022-08-29T23:36:12.743Z,50.80
2022-08-29T23:38:39.795Z,50.50
2022-08-29T23:41:06.541Z,50.20
2022-08-29T23:43:36.685Z,49.90
2022-08-29T23:46:04.367Z,49.50
2022-08-29T23:48:31.273Z,49.40
2022-08-29T23:50:57.895Z,49.60
2022-08-29T23:53:24.557Z,49.70
2022-08-29T23:55:51.161Z,49.70
2022-08-29T23:58:17.894Z,49.70
